Flight Track Log - Related Links

Times and Time Zones

All times are in EST time to prevent confusion due to time zone crossing. See the N100WX flight status page for this flight to view local times or setup timezone preferences in your user account.

Time Position Orientation Groundspeed Altitude Reporting Facility
EST Latitude Longitude Course Direction KTS MPH feet Rate Location/Type
Wed 04:01:45 PM 28.3000 -81.4500 336° Northwest 134 154 400  Level Orlando TRACON
Wed 04:02:45 PM 28.3333 -81.4667 336° Northwest 191 220 2,000 1,800 Climbing Orlando TRACON
Wed 04:03:45 PM 28.3833 -81.5167 319° Northwest 236 272 4,000 1,550 Climbing Orlando TRACON
Wed 04:04:45 PM 28.4500 -81.5333 348° North 240 276 5,100 1,154 Climbing Orlando TRACON
Wed 04:07:13 PM 28.6211 -81.5706 349° North 257 296 8,000 1,240 Climbing Jacksonville Center
Wed 04:08:13 PM 28.6964 -81.5836 351° North 267 307 9,400 2,000 Climbing Jacksonville Center
Wed 04:09:13 PM 28.7672 -81.5828 North 262 302 12,000 2,250 Climbing Jacksonville Center
Wed 04:10:13 PM 28.8381 -81.5819 North 252 290 13,900 1,950 Climbing Jacksonville Center
Wed 04:11:13 PM 28.9092 -81.5808 North 252 290 15,900 1,750 Climbing Jacksonville Center
Wed 04:12:13 PM 28.9864 -81.5800 North 257 296 17,400 1,550 Climbing Jacksonville Center
Wed 04:13:13 PM 29.0614 -81.5742 North 263 303 19,000 1,600 Climbing Jacksonville Center
Wed 04:14:13 PM 29.1386 -81.5661 North 268 308 20,600 1,350 Climbing Jacksonville Center
Wed 04:15:13 PM 29.2011 -81.5628 North 275 316 21,700 1,300 Climbing Jacksonville Center
Wed 04:16:13 PM 29.2908 -81.5569 North 280 322 23,200 1,400 Climbing Jacksonville Center
Wed 04:17:13 PM 29.3742 -81.5486 North 291 335 24,500 1,300 Climbing Jacksonville Center
Wed 04:18:13 PM 29.4597 -81.5353 North 291 335 25,800 1,200 Climbing Jacksonville Center
Wed 04:19:13 PM 29.5431 -81.5272 North 291 335 26,900 1,200 Climbing Jacksonville Center
Wed 04:20:13 PM 29.6328 -81.5186 North 301 346 28,200 1,450 Climbing Jacksonville Center
Wed 04:21:13 PM 29.7203 -81.5056 North 312 359 29,800 1,400 Climbing Jacksonville Center
Wed 04:22:13 PM 29.8036 -81.4900 North 312 359 31,000 1,300 Climbing Jacksonville Center
Wed 04:23:13 PM 29.8892 -81.4744 North 306 352 32,400 1,000 Climbing Jacksonville Center
Wed 04:24:13 PM 29.9686 -81.4803 356° North 293 337 33,000 300 Climbing Jacksonville Center
Wed 04:25:13 PM 30.0564 -81.4886 355° North 293 337 33,000  Level Jacksonville Center
Wed 04:26:13 PM 30.1544 -81.4969 356° North 320 368 33,000  Level Jacksonville Center
Wed 04:27:13 PM 30.2569 -81.5025 357° North 349 402 33,000  Level Jacksonville Center
Wed 04:28:13 PM 30.3614 -81.5058 358° North 366 421 33,000 400 Level Jacksonville Center
Wed 04:29:13 PM 30.4697 -81.4897 North 378 435 33,800 1,850 Climbing Jacksonville Center
Wed 04:30:13 PM 30.5592 -81.4717 10° North 362 417 36,700 1,800 Climbing Jacksonville Center
Wed 04:31:13 PM 30.6425 -81.4583 North 323 372 37,400 600 Climbing Jacksonville Center
Wed 04:32:13 PM 30.7256 -81.4136 25° Northeast 312 359 37,900 500 Climbing Jacksonville Center
Wed 04:33:13 PM 30.8064 -81.3519 33° Northeast 317 365 38,400 450 Climbing Jacksonville Center
Wed 04:34:13 PM 30.8869 -81.2925 32° Northeast 329 379 38,800 450 Climbing Jacksonville Center
Wed 04:35:13 PM 30.9719 -81.2328 31° Northeast 343 395 39,300 500 Climbing Jacksonville Center
Wed 04:36:13 PM 31.0567 -81.1708 32° Northeast 343 395 39,800 400 Climbing Jacksonville Center
Wed 04:37:13 PM 31.1414 -81.1086 32° Northeast 343 395 40,100 300 Climbing Jacksonville Center
Wed 04:38:13 PM 31.2261 -81.0511 30° Northeast 348 400 40,400 350 Climbing Jacksonville Center
Wed 04:39:13 PM 31.3108 -80.9861 33° Northeast 348 400 40,800 300 Climbing Jacksonville Center
Wed 04:40:13 PM 31.4058 -80.9161 32° Northeast 359 413 41,000 100 Climbing Jacksonville Center
Wed 04:41:13 PM 31.4925 -80.8508 33° Northeast 359 413 41,000  Level Jacksonville Center
Wed 04:42:13 PM 31.5750 -80.7906 32° Northeast 374 430 41,000  Level Jacksonville Center
Wed 04:43:13 PM 31.6781 -80.7175 31° Northeast 385 443 41,000  Level Jacksonville Center
Wed 04:44:13 PM 31.7606 -80.6544 33° Northeast 390 449 41,000  Level Jacksonville Center
Wed 04:45:13 PM 31.8678 -80.5783 31° Northeast 395 455 41,000  Level Jacksonville Center
Wed 04:46:13 PM 31.9625 -80.5075 32° Northeast 401 461 41,000  Level Jacksonville Center
Wed 04:47:13 PM 32.0469 -80.4439 33° Northeast 401 461 41,000  Level Jacksonville Center
Wed 04:48:13 PM 32.1394 -80.3728 33° Northeast 401 461 41,000  Level Jacksonville Center
Wed 04:49:13 PM 32.2361 -80.3014 32° Northeast 401 461 41,000  Level Jacksonville Center
Wed 04:50:13 PM 32.3264 -80.2325 33° Northeast 401 461 41,000  Level Jacksonville Center
Wed 04:51:13 PM 32.4231 -80.1608 32° Northeast 406 467 41,000  Level Jacksonville Center
Wed 04:52:13 PM 32.5156 -80.0914 32° Northeast 401 461 41,000  Level Jacksonville Center
Wed 04:53:13 PM 32.6078 -80.0197 33° Northeast 396 456 41,000  Level Jacksonville Center
Wed 04:54:13 PM 32.7125 -79.9422 32° Northeast 390 449 41,000  Level Jacksonville Center
Wed 04:55:13 PM 32.8025 -79.8700 34° Northeast 395 455 41,000  Level Jacksonville Center
Wed 04:56:13 PM 32.8989 -79.7975 32° Northeast 395 455 41,000  Level Jacksonville Center
Wed 04:57:13 PM 32.9911 -79.7300 32° Northeast 395 455 41,000  Level Jacksonville Center
Wed 04:58:13 PM 33.0875 -79.6547 33° Northeast 400 460 41,000  Level Jacksonville Center
Wed 04:59:13 PM 33.1794 -79.5844 33° Northeast 400 460 41,000  Level Jacksonville Center
Wed 05:00:13 PM 33.2736 -79.5139 32° Northeast 395 455 41,000  Level Jacksonville Center
Wed 05:01:13 PM 33.3675 -79.4381 34° Northeast 395 455 41,000  Level Jacksonville Center
Wed 05:02:13 PM 33.4617 -79.3672 32° Northeast 400 460 41,000  Level Jacksonville Center
Wed 05:03:13 PM 33.5575 -79.2936 33° Northeast 400 460 41,000  Level Jacksonville Center
Wed 05:04:13 PM 33.6517 -79.2225 32° Northeast 400 460 41,000  Level Jacksonville Center
Wed 05:05:13 PM 33.7311 -79.1592 34° Northeast 391 450 41,000  Level Jacksonville Center
Wed 05:06:13 PM 33.8269 -79.0875 32° Northeast 391 450 41,000  Level Jacksonville Center
Wed 05:07:13 PM 33.9289 -79.0106 32° Northeast 391 450 41,000  Level Jacksonville Center
Wed 05:09:24 PM 34.1339 -78.8458 34° Northeast 401 461 41,000  Level Washington Center
Wed 05:10:24 PM 34.2275 -78.7717 33° Northeast 406 467 41,000  Level Washington Center
Wed 05:11:24 PM 34.3236 -78.6975 33° Northeast 406 467 41,000  Level Washington Center
Wed 05:12:25 PM 34.4214 -78.6231 32° Northeast 406 467 41,000  Level Washington Center
Wed 05:13:26 PM 34.5150 -78.5461 34° Northeast 406 467 41,000  Level Washington Center
Wed 05:14:26 PM 34.6111 -78.4636 35° Northeast 412 474 41,000  Level Washington Center
Wed 05:15:24 PM 34.7067 -78.3939 31° Northeast 412 474 41,000  Level Washington Center
Wed 05:16:26 PM 34.8044 -78.3161 33° Northeast 406 467 41,000  Level Washington Center
Wed 05:17:26 PM 34.8872 -78.2481 34° Northeast 401 461 41,000  Level Washington Center
Wed 05:18:26 PM 34.9847 -78.1728 32° Northeast 406 467 41,000  Level Washington Center
Wed 05:19:24 PM 35.0822 -78.1022 31° Northeast 412 474 41,000  Level Washington Center
Wed 05:20:24 PM 35.1778 -78.0289 32° Northeast 412 474 41,000  Level Washington Center
Wed 05:21:25 PM 35.2753 -77.9556 32° Northeast 412 474 41,000  Level Washington Center
Wed 05:22:26 PM 35.3725 -77.8819 32° Northeast 412 474 41,000  Level Washington Center
Wed 05:23:27 PM 35.4700 -77.8083 32° Northeast 412 474 41,000  Level Washington Center
Wed 05:24:25 PM 35.5758 -77.7269 32° Northeast 412 474 41,000  Level Washington Center
Wed 05:25:25 PM 35.6731 -77.6528 32° Northeast 412 474 41,000  Level Washington Center
Wed 05:26:26 PM 35.7703 -77.5786 32° Northeast 412 474 41,000  Level Washington Center
Wed 05:27:26 PM 35.8653 -77.5067 32° Northeast 407 468 41,000  Level Washington Center
Wed 05:28:26 PM 35.9603 -77.4344 32° Northeast 407 468 41,000  Level Washington Center
Wed 05:29:24 PM 36.0533 -77.3597 33° Northeast 407 468 41,000  Level Washington Center
Wed 05:30:26 PM 36.1483 -77.2872 32° Northeast 402 463 41,000  Level Washington Center
Wed 05:31:27 PM 36.2306 -77.2219 33° Northeast 395 455 41,000  Level Washington Center
Wed 05:32:24 PM 36.3211 -77.1492 33° Northeast 395 455 41,000  Level Washington Center
Wed 05:33:25 PM 36.4161 -77.0761 32° Northeast 395 455 41,000  Level Washington Center
Wed 05:34:25 PM 36.5086 -77.0003 33° Northeast 395 455 41,000  Level Washington Center
Wed 05:35:26 PM 36.6014 -76.9269 32° Northeast 395 455 41,000  Level Washington Center
Wed 05:36:25 PM 36.6981 -76.8508 32° Northeast 395 455 41,000 -500 Level Washington Center
Wed 05:37:26 PM 36.7950 -76.7747 32° Northeast 395 455 40,000 -958 Descending Washington Center
Wed 05:38:24 PM 36.9000 -76.6906 33° Northeast 417 480 39,100 -504 Descending Washington Center
Wed 05:39:25 PM 37.0133 -76.5986 33° Northeast 439 505 39,000 -49 Descending Washington Center
Wed 05:40:26 PM 37.1183 -76.5167 32° Northeast 439 505 39,000  Level Washington Center
Wed 05:41:24 PM 37.2233 -76.4317 33° Northeast 439 505 39,000  Level Washington Center
Wed 05:42:26 PM 37.3261 -76.3467 33° Northeast 439 505 39,000  Level Washington Center
Wed 05:43:24 PM 37.4267 -76.2667 32° Northeast 434 499 39,000  Level Washington Center
Wed 05:44:24 PM 37.5314 -76.1811 33° Northeast 434 499 39,000  Level Washington Center
Wed 05:45:25 PM 37.6361 -76.1006 31° Northeast 434 499 39,000  Level Washington Center
Wed 05:46:26 PM 37.7386 -76.0197 32° Northeast 434 499 39,000  Level Washington Center
Wed 05:47:24 PM 37.8369 -75.9311 35° Northeast 434 499 39,000  Level Washington Center
Wed 05:48:25 PM 37.9392 -75.8444 34° Northeast 439 505 39,000  Level Washington Center
Wed 05:49:26 PM 38.0458 -75.7658 30° Northeast 439 505 39,000  Level Washington Center
Wed 05:50:24 PM 38.1461 -75.6736 36° Northeast 439 505 39,000  Level Washington Center
Wed 05:51:24 PM 38.2461 -75.5892 34° Northeast 439 505 39,000  Level Washington Center
Wed 05:52:25 PM 38.3544 -75.5069 31° Northeast 439 505 39,000  Level Washington Center
Wed 05:53:25 PM 38.4608 -75.4644 17° North 413 475 39,000  Level Washington Center
Wed 05:54:26 PM 38.5669 -75.4244 16° North 402 463 39,000  Level Washington Center
Wed 05:55:26 PM 38.6733 -75.3789 18° North 397 457 39,000  Level Washington Center
Wed 05:56:25 PM 38.7775 -75.3281 21° North 397 457 39,000  Level Washington Center
Wed 05:57:25 PM 38.8794 -75.2503 31° Northeast 413 475 39,000  Level Washington Center
Wed 05:58:26 PM 38.9792 -75.1536 37° Northeast 426 490 39,000  Level Washington Center
Wed 05:59:26 PM 39.0767 -75.0569 38° Northeast 439 505 39,000  Level Washington Center
Wed 06:00:24 PM 39.1764 -74.9569 38° Northeast 444 511 39,000  Level Washington Center
Wed 06:01:25 PM 39.2736 -74.8597 38° Northeast 444 511 39,000  Level Washington Center
Wed 06:02:25 PM 39.3711 -74.7619 38° Northeast 444 511 39,000  Level Washington Center
Wed 06:03:24 PM 39.4703 -74.6642 37° Northeast 444 511 39,000  Level Washington Center
Wed 06:04:24 PM 39.5675 -74.5633 39° Northeast 444 511 39,000  Level Washington Center
Wed 06:05:24 PM 39.6664 -74.4647 37° Northeast 444 511 39,000 -617 Level Washington Center
Wed 06:07:19 PM 39.8575 -74.2728 38° Northeast 454 522 37,200 -926 Descending New York Center
Wed 06:08:19 PM 39.9606 -74.1669 38° Northeast 459 528 36,300 -950 Descending New York Center
Wed 06:09:19 PM 40.0614 -74.0633 38° Northeast 459 528 35,300 -1,000 Descending New York Center
Wed 06:10:19 PM 40.1644 -73.9597 38° Northeast 459 528 34,300 -1,000 Descending New York Center
Wed 06:11:19 PM 40.2650 -73.8556 38° Northeast 459 528 33,300 -1,674 Descending New York Center
Wed 06:13:29 PM 40.4650 -73.6472 38° Northeast 442 509 29,000 -2,084 Descending Boston Center
Wed 06:14:29 PM 40.5556 -73.5525 38° Northeast 419 482 26,700 -2,323 Descending Boston Center
Wed 06:15:33 PM 40.6600 -73.4442 38° Northeast 399 459 24,200 -2,081 Descending Boston Center
Wed 06:16:33 PM 40.7375 -73.3636 38° Northeast 383 441 22,400 -1,574 Descending Boston Center
Wed 06:17:35 PM 40.8169 -73.2789 39° Northeast 363 418 21,000 -700 Descending Boston Center
Wed 06:18:33 PM 40.8933 -73.1894 41° Northeast 368 423 21,000  Level Boston Center
Wed 06:19:37 PM 40.9739 -73.0967 41° Northeast 382 440 21,000  Level Boston Center
Wed 06:20:38 PM 41.0550 -73.0022 41° Northeast 388 447 21,000  Level Boston Center
Wed 06:21:38 PM 41.1353 -72.9053 42° Northeast 392 451 21,000 -900 Level Boston Center
Wed 06:22:38 PM 41.2183 -72.8081 41° Northeast 398 458 19,200 -1,967 Descending Boston Center
Wed 06:23:40 PM 41.3094 -72.6975 42° Northeast 375 432 17,000 -1,854 Descending Boston Center
Wed 06:24:41 PM 41.4006 -72.6528 20° North 347 399 15,400 -893 Descending Boston Center
Wed 06:25:41 PM 41.4892 -72.6144 18° North 338 389 15,200 -298 Descending Boston Center
Wed 06:26:42 PM 41.5811 -72.5767 17° North 324 373 14,800 -1,200 Descending Boston Center
Wed 06:27:46 PM 41.6642 -72.5200 27° Northeast 338 389 12,700 -2,053 Descending Boston Center
Wed 06:27:58 PM 41.6819 -72.4986 42° Northeast 342 394 12,200 -2,000 Descending Boston Center
Wed 06:28:16 PM 41.7033 -72.4775 36° Northeast 346 398 11,700 -1,102 Descending Boston Center
Wed 06:28:47 PM 41.7381 -72.4403 39° Northeast 342 394 11,300 -492 Descending Boston Center
Wed 06:29:17 PM 41.7769 -72.4000 38° Northeast 310 357 11,200 -310 Descending Boston Center
Wed 06:29:45 PM 41.8056 -72.3664 41° Northeast 317 365 11,000 -176 Descending Boston Center
Wed 06:30:25 PM 41.8522 -72.3142 40° Northeast 320 368 11,000  Level Boston Center
Wed 06:30:49 PM 41.8786 -72.2864 38° Northeast 316 364 11,000 -900 Level Boston Center
Wed 06:31:25 PM 41.9186 -72.2394 41° Northeast 315 362 10,100 -1,600 Descending Boston Center
Wed 06:31:49 PM 41.9444 -72.2111 39° Northeast 311 358 9,400 -1,770 Descending Boston Center
Wed 06:32:26 PM 41.9850 -72.1644 41° Northeast 311 358 8,300 -1,672 Descending Boston Center
Wed 06:32:50 PM 42.0106 -72.1347 41° Northeast 316 364 7,700 -1,818 Descending Boston Center
Wed 06:33:32 PM 42.0594 -72.0808 39° Northeast 301 346 6,300 -1,800 Descending Boston Center
Wed 06:33:50 PM 42.0753 -72.0606 44° Northeast 305 351 5,900 -1,200 Descending Boston Center
Wed 06:34:32 PM 42.1206 -72.0097 40° Northeast 280 322 5,100 -885 Descending Boston Center
Wed 06:34:51 PM 42.1383 -71.9906 39° Northeast 273 314 5,000 -90 Descending Boston Center
Wed 06:35:39 PM 42.1825 -71.9444 38° Northeast 261 300 5,000  Level Boston Center
Wed 06:35:51 PM 42.1947 -71.9286 44° Northeast 262 302 5,000  Level Boston Center
Wed 06:36:46 PM 42.2483 -71.8717 38° Northeast 261 300 5,000  Level Boston Center
Wed 06:36:52 PM 42.2511 -71.8672 50° Northeast 264 304 5,000  Level Boston Center
Wed 06:37:23 PM 42.2808 -71.8367 37° Northeast 256 295 5,000  Level Boston Center
Wed 06:37:56 PM 42.3075 -71.8022 44° Northeast 248 285 5,000  Level Boston Center
Wed 06:38:55 PM 42.3569 -71.7514 37° Northeast 236 272 5,000 -50 Level Boston Center
Wed 06:39:56 PM 42.4053 -71.6894 43° Northeast 225 259 4,900 -541 Descending Boston Center
Wed 06:40:57 PM 42.4403 -71.6069 60° Northeast 250 288 3,900 -934 Descending Boston Center
Wed 06:41:58 PM 42.4797 -71.5250 57° Northeast 259 298 3,000 -694 Descending Boston Center
Wed 06:42:58 PM 42.4978 -71.4417 74° East 235 270 2,500 -738 Descending Boston Center
Wed 06:44:00 PM 42.4947 -71.3647 93° East 209 241 1,500 -480 Descending Boston Center
Wed 06:45:03 PM 42.4917 -71.3058 94° East 153 176 1,500 -48 Level Boston Center
Wed 06:46:04 PM 42.4883 -71.2581 95° East 132 152 1,400 -450 Descending Boston Center
Wed 06:47:03 PM 42.4678 -71.2514 167° South 124 143 600 -500 Descending Boston Center
Wed 06:48:04 PM 42.4781 -71.2950 288° West 123 142 400 -197 Descending Boston Center

Login

Don't have an account? Register now (free) for customized features, flight alerts, and more!